sensor_id;sensor_type;location;lat;lon;timestamp;P1;durP1;ratioP1;P2;durP2;ratioP2
46363;SDS011;32071;49.036;9.344;2024-03-22T00:01:46;4.27;;;3.70;;
46363;SDS011;32071;49.036;9.344;2024-03-22T00:04:15;5.40;;;3.50;;
46363;SDS011;32071;49.036;9.344;2024-03-22T00:06:41;5.83;;;3.53;;
46363;SDS011;32071;49.036;9.344;2024-03-22T00:09:07;4.90;;;3.83;;
46363;SDS011;32071;49.036;9.344;2024-03-22T00:11:33;5.10;;;3.87;;
46363;SDS011;32071;49.036;9.344;2024-03-22T00:13:59;4.07;;;3.67;;
46363;SDS011;32071;49.036;9.344;2024-03-22T00:16:26;3.87;;;3.30;;
46363;SDS011;32071;49.036;9.344;2024-03-22T00:18:51;7.20;;;3.87;;
46363;SDS011;32071;49.036;9.344;2024-03-22T00:21:17;6.07;;;3.60;;
46363;SDS011;32071;49.036;9.344;2024-03-22T00:23:43;4.80;;;3.53;;
46363;SDS011;32071;49.036;9.344;2024-03-22T00:26:09;4.60;;;3.47;;
46363;SDS011;32071;49.036;9.344;2024-03-22T00:28:35;4.53;;;3.23;;
46363;SDS011;32071;49.036;9.344;2024-03-22T00:31:00;5.77;;;3.70;;
46363;SDS011;32071;49.036;9.344;2024-03-22T00:33:26;5.93;;;4.10;;
46363;SDS011;32071;49.036;9.344;2024-03-22T00:35:51;3.47;;;3.17;;
46363;SDS011;32071;49.036;9.344;2024-03-22T00:38:17;7.00;;;3.73;;
46363;SDS011;32071;49.036;9.344;2024-03-22T00:40:43;4.53;;;3.73;;
46363;SDS011;32071;49.036;9.344;2024-03-22T00:43:08;6.37;;;3.40;;
46363;SDS011;32071;49.036;9.344;2024-03-22T00:45:34;3.30;;;2.63;;
46363;SDS011;32071;49.036;9.344;2024-03-22T00:47:59;4.40;;;3.60;;
46363;SDS011;32071;49.036;9.344;2024-03-22T00:50:25;4.70;;;3.63;;
46363;SDS011;32071;49.036;9.344;2024-03-22T00:52:51;6.10;;;3.07;;
46363;SDS011;32071;49.036;9.344;2024-03-22T00:55:17;4.53;;;3.20;;
46363;SDS011;32071;49.036;9.344;2024-03-22T00:57:43;6.20;;;3.40;;
46363;SDS011;32071;49.036;9.344;2024-03-22T01:00:09;4.73;;;3.50;;
46363;SDS011;32071;49.036;9.344;2024-03-22T01:02:35;3.67;;;2.90;;
46363;SDS011;32071;49.036;9.344;2024-03-22T01:05:00;9.10;;;3.73;;
46363;SDS011;32071;49.036;9.344;2024-03-22T01:07:26;5.03;;;3.33;;
46363;SDS011;32071;49.036;9.344;2024-03-22T01:09:51;6.20;;;3.30;;
46363;SDS011;32071;49.036;9.344;2024-03-22T01:12:17;5.17;;;3.47;;
46363;SDS011;32071;49.036;9.344;2024-03-22T01:14:43;4.23;;;2.93;;
46363;SDS011;32071;49.036;9.344;2024-03-22T01:17:08;10.10;;;3.37;;
46363;SDS011;32071;49.036;9.344;2024-03-22T01:19:34;6.90;;;3.40;;
46363;SDS011;32071;49.036;9.344;2024-03-22T01:21:59;4.43;;;3.40;;
46363;SDS011;32071;49.036;9.344;2024-03-22T01:24:25;4.00;;;3.20;;
46363;SDS011;32071;49.036;9.344;2024-03-22T01:26:50;4.13;;;3.10;;
46363;SDS011;32071;49.036;9.344;2024-03-22T01:29:16;4.03;;;3.20;;
46363;SDS011;32071;49.036;9.344;2024-03-22T01:31:42;4.50;;;3.37;;
46363;SDS011;32071;49.036;9.344;2024-03-22T01:34:07;4.53;;;3.43;;
46363;SDS011;32071;49.036;9.344;2024-03-22T01:36:33;5.80;;;3.10;;
46363;SDS011;32071;49.036;9.344;2024-03-22T01:38:58;4.63;;;2.97;;
46363;SDS011;32071;49.036;9.344;2024-03-22T01:41:24;5.33;;;3.50;;
46363;SDS011;32071;49.036;9.344;2024-03-22T01:43:50;5.50;;;3.60;;
46363;SDS011;32071;49.036;9.344;2024-03-22T01:46:15;5.77;;;3.50;;
46363;SDS011;32071;49.036;9.344;2024-03-22T01:48:41;4.93;;;3.73;;
46363;SDS011;32071;49.036;9.344;2024-03-22T01:51:06;6.30;;;3.80;;
46363;SDS011;32071;49.036;9.344;2024-03-22T01:53:33;2.83;;;2.53;;
46363;SDS011;32071;49.036;9.344;2024-03-22T01:56:00;4.60;;;3.30;;
46363;SDS011;32071;49.036;9.344;2024-03-22T01:58:26;4.17;;;2.83;;
46363;SDS011;32071;49.036;9.344;2024-03-22T02:00:52;4.93;;;2.97;;
46363;SDS011;32071;49.036;9.344;2024-03-22T02:03:17;6.87;;;3.37;;
46363;SDS011;32071;49.036;9.344;2024-03-22T02:05:43;6.40;;;3.57;;
46363;SDS011;32071;49.036;9.344;2024-03-22T02:08:08;5.70;;;3.60;;
46363;SDS011;32071;49.036;9.344;2024-03-22T02:10:34;4.97;;;3.10;;
46363;SDS011;32071;49.036;9.344;2024-03-22T02:13:00;6.13;;;3.87;;
46363;SDS011;32071;49.036;9.344;2024-03-22T02:15:26;4.97;;;3.70;;
46363;SDS011;32071;49.036;9.344;2024-03-22T02:17:51;3.70;;;3.17;;
46363;SDS011;32071;49.036;9.344;2024-03-22T02:20:17;5.20;;;3.47;;
46363;SDS011;32071;49.036;9.344;2024-03-22T02:22:43;7.77;;;4.10;;
46363;SDS011;32071;49.036;9.344;2024-03-22T02:25:08;3.43;;;3.13;;
46363;SDS011;32071;49.036;9.344;2024-03-22T02:27:34;7.70;;;3.93;;
46363;SDS011;32071;49.036;9.344;2024-03-22T02:30:00;4.93;;;3.80;;
46363;SDS011;32071;49.036;9.344;2024-03-22T02:32:26;5.20;;;3.63;;
46363;SDS011;32071;49.036;9.344;2024-03-22T02:34:52;3.90;;;3.40;;
46363;SDS011;32071;49.036;9.344;2024-03-22T02:37:18;6.93;;;3.63;;
46363;SDS011;32071;49.036;9.344;2024-03-22T02:39:43;3.73;;;3.20;;
46363;SDS011;32071;49.036;9.344;2024-03-22T02:42:09;7.33;;;4.23;;
46363;SDS011;32071;49.036;9.344;2024-03-22T02:44:34;7.03;;;4.60;;
46363;SDS011;32071;49.036;9.344;2024-03-22T02:47:03;6.20;;;3.40;;
46363;SDS011;32071;49.036;9.344;2024-03-22T02:49:29;5.50;;;4.10;;
46363;SDS011;32071;49.036;9.344;2024-03-22T02:51:54;5.57;;;3.73;;
46363;SDS011;32071;49.036;9.344;2024-03-22T02:54:20;5.37;;;4.27;;
46363;SDS011;32071;49.036;9.344;2024-03-22T02:56:45;6.57;;;4.00;;
46363;SDS011;32071;49.036;9.344;2024-03-22T02:59:11;10.23;;;4.17;;
46363;SDS011;32071;49.036;9.344;2024-03-22T03:01:36;7.80;;;4.13;;
46363;SDS011;32071;49.036;9.344;2024-03-22T03:04:02;6.60;;;4.50;;
46363;SDS011;32071;49.036;9.344;2024-03-22T03:06:27;6.43;;;4.50;;
46363;SDS011;32071;49.036;9.344;2024-03-22T03:08:53;6.23;;;4.30;;
46363;SDS011;32071;49.036;9.344;2024-03-22T03:11:19;7.73;;;4.67;;
46363;SDS011;32071;49.036;9.344;2024-03-22T03:13:44;6.03;;;3.90;;
46363;SDS011;32071;49.036;9.344;2024-03-22T03:16:10;6.40;;;4.10;;
46363;SDS011;32071;49.036;9.344;2024-03-22T03:18:35;10.10;;;5.20;;
46363;SDS011;32071;49.036;9.344;2024-03-22T03:21:01;7.30;;;4.10;;
46363;SDS011;32071;49.036;9.344;2024-03-22T03:23:26;8.40;;;4.40;;
46363;SDS011;32071;49.036;9.344;2024-03-22T03:25:52;7.00;;;4.93;;
46363;SDS011;32071;49.036;9.344;2024-03-22T03:28:17;7.57;;;5.03;;
46363;SDS011;32071;49.036;9.344;2024-03-22T03:30:44;9.67;;;5.97;;
46363;SDS011;32071;49.036;9.344;2024-03-22T03:33:09;8.77;;;5.57;;
46363;SDS011;32071;49.036;9.344;2024-03-22T03:35:35;7.20;;;4.33;;
46363;SDS011;32071;49.036;9.344;2024-03-22T03:38:00;13.20;;;5.33;;
46363;SDS011;32071;49.036;9.344;2024-03-22T03:40:26;7.30;;;4.83;;
46363;SDS011;32071;49.036;9.344;2024-03-22T03:42:53;8.70;;;4.00;;
46363;SDS011;32071;49.036;9.344;2024-03-22T03:45:18;10.30;;;5.63;;
46363;SDS011;32071;49.036;9.344;2024-03-22T03:47:44;8.03;;;5.47;;
46363;SDS011;32071;49.036;9.344;2024-03-22T03:50:10;8.23;;;6.03;;
46363;SDS011;32071;49.036;9.344;2024-03-22T03:52:35;11.03;;;6.30;;
46363;SDS011;32071;49.036;9.344;2024-03-22T03:55:01;7.87;;;5.47;;
46363;SDS011;32071;49.036;9.344;2024-03-22T03:57:27;10.43;;;6.20;;
46363;SDS011;32071;49.036;9.344;2024-03-22T03:59:52;8.53;;;5.50;;
46363;SDS011;32071;49.036;9.344;2024-03-22T04:02:18;9.67;;;5.60;;
46363;SDS011;32071;49.036;9.344;2024-03-22T04:04:43;7.77;;;5.30;;
46363;SDS011;32071;49.036;9.344;2024-03-22T04:07:09;9.10;;;5.80;;
46363;SDS011;32071;49.036;9.344;2024-03-22T04:09:34;11.80;;;5.40;;
46363;SDS011;32071;49.036;9.344;2024-03-22T04:12:00;9.73;;;5.40;;
46363;SDS011;32071;49.036;9.344;2024-03-22T04:14:26;14.90;;;7.07;;
46363;SDS011;32071;49.036;9.344;2024-03-22T04:16:52;12.07;;;7.47;;
46363;SDS011;32071;49.036;9.344;2024-03-22T04:19:19;12.20;;;6.90;;
46363;SDS011;32071;49.036;9.344;2024-03-22T04:21:45;12.80;;;7.70;;
46363;SDS011;32071;49.036;9.344;2024-03-22T04:24:11;12.40;;;7.20;;
46363;SDS011;32071;49.036;9.344;2024-03-22T04:26:37;13.77;;;6.93;;
46363;SDS011;32071;49.036;9.344;2024-03-22T04:29:02;11.50;;;6.77;;
46363;SDS011;32071;49.036;9.344;2024-03-22T04:31:28;9.30;;;6.23;;
46363;SDS011;32071;49.036;9.344;2024-03-22T04:33:53;9.70;;;6.03;;
46363;SDS011;32071;49.036;9.344;2024-03-22T04:36:19;11.47;;;7.33;;
46363;SDS011;32071;49.036;9.344;2024-03-22T04:38:44;12.57;;;7.97;;
46363;SDS011;32071;49.036;9.344;2024-03-22T04:41:10;13.30;;;8.27;;
46363;SDS011;32071;49.036;9.344;2024-03-22T04:43:35;11.67;;;6.77;;
46363;SDS011;32071;49.036;9.344;2024-03-22T04:46:01;11.20;;;7.87;;
46363;SDS011;32071;49.036;9.344;2024-03-22T04:48:26;13.60;;;7.70;;
46363;SDS011;32071;49.036;9.344;2024-03-22T04:50:52;13.10;;;8.13;;
46363;SDS011;32071;49.036;9.344;2024-03-22T04:53:18;16.50;;;9.27;;
46363;SDS011;32071;49.036;9.344;2024-03-22T04:55:47;12.40;;;7.90;;
46363;SDS011;32071;49.036;9.344;2024-03-22T04:58:17;13.17;;;9.10;;
46363;SDS011;32071;49.036;9.344;2024-03-22T05:00:44;14.80;;;8.40;;
46363;SDS011;32071;49.036;9.344;2024-03-22T05:03:10;13.57;;;8.90;;
46363;SDS011;32071;49.036;9.344;2024-03-22T05:05:36;10.63;;;6.77;;
46363;SDS011;32071;49.036;9.344;2024-03-22T05:08:02;12.83;;;8.07;;
46363;SDS011;32071;49.036;9.344;2024-03-22T05:10:29;13.20;;;8.00;;
46363;SDS011;32071;49.036;9.344;2024-03-22T05:12:55;16.57;;;10.10;;
46363;SDS011;32071;49.036;9.344;2024-03-22T05:15:21;16.00;;;11.00;;
46363;SDS011;32071;49.036;9.344;2024-03-22T05:17:47;19.70;;;11.90;;
46363;SDS011;32071;49.036;9.344;2024-03-22T05:20:13;16.57;;;11.17;;
46363;SDS011;32071;49.036;9.344;2024-03-22T05:22:40;15.13;;;11.03;;
46363;SDS011;32071;49.036;9.344;2024-03-22T05:25:05;15.30;;;10.40;;
46363;SDS011;32071;49.036;9.344;2024-03-22T05:27:33;17.83;;;10.90;;
46363;SDS011;32071;49.036;9.344;2024-03-22T05:29:59;17.77;;;10.67;;
46363;SDS011;32071;49.036;9.344;2024-03-22T05:32:25;19.73;;;9.87;;
46363;SDS011;32071;49.036;9.344;2024-03-22T05:34:51;15.20;;;9.50;;
46363;SDS011;32071;49.036;9.344;2024-03-22T05:37:17;19.17;;;10.33;;
46363;SDS011;32071;49.036;9.344;2024-03-22T05:39:43;15.40;;;10.00;;
46363;SDS011;32071;49.036;9.344;2024-03-22T05:42:08;15.93;;;10.00;;
46363;SDS011;32071;49.036;9.344;2024-03-22T05:44:34;15.63;;;10.47;;
46363;SDS011;32071;49.036;9.344;2024-03-22T05:47:00;18.63;;;9.47;;
46363;SDS011;32071;49.036;9.344;2024-03-22T05:49:26;22.20;;;11.07;;
46363;SDS011;32071;49.036;9.344;2024-03-22T05:51:52;15.53;;;10.13;;
46363;SDS011;32071;49.036;9.344;2024-03-22T05:54:17;18.40;;;11.00;;
46363;SDS011;32071;49.036;9.344;2024-03-22T05:56:43;15.13;;;9.73;;
46363;SDS011;32071;49.036;9.344;2024-03-22T05:59:08;16.83;;;10.47;;
46363;SDS011;32071;49.036;9.344;2024-03-22T06:01:35;16.43;;;10.73;;
46363;SDS011;32071;49.036;9.344;2024-03-22T06:04:01;17.57;;;10.00;;
46363;SDS011;32071;49.036;9.344;2024-03-22T06:06:26;18.73;;;10.80;;
46363;SDS011;32071;49.036;9.344;2024-03-22T06:08:52;16.17;;;10.60;;
46363;SDS011;32071;49.036;9.344;2024-03-22T06:11:19;13.33;;;9.47;;
46363;SDS011;32071;49.036;9.344;2024-03-22T06:13:45;16.13;;;9.50;;
46363;SDS011;32071;49.036;9.344;2024-03-22T06:16:11;17.93;;;11.10;;
46363;SDS011;32071;49.036;9.344;2024-03-22T06:18:36;17.00;;;10.20;;
46363;SDS011;32071;49.036;9.344;2024-03-22T06:21:02;17.30;;;10.83;;
46363;SDS011;32071;49.036;9.344;2024-03-22T06:23:28;17.80;;;10.20;;
46363;SDS011;32071;49.036;9.344;2024-03-22T06:25:54;18.47;;;11.07;;
46363;SDS011;32071;49.036;9.344;2024-03-22T06:28:20;15.00;;;10.23;;
46363;SDS011;32071;49.036;9.344;2024-03-22T06:30:46;15.50;;;9.90;;
46363;SDS011;32071;49.036;9.344;2024-03-22T06:33:12;20.13;;;11.63;;
46363;SDS011;32071;49.036;9.344;2024-03-22T06:35:37;22.20;;;10.93;;
46363;SDS011;32071;49.036;9.344;2024-03-22T06:38:03;23.53;;;11.90;;
46363;SDS011;32071;49.036;9.344;2024-03-22T06:40:29;15.43;;;10.70;;
46363;SDS011;32071;49.036;9.344;2024-03-22T06:42:55;17.30;;;11.70;;
46363;SDS011;32071;49.036;9.344;2024-03-22T06:45:20;19.30;;;12.40;;
46363;SDS011;32071;49.036;9.344;2024-03-22T06:47:46;18.67;;;12.37;;
46363;SDS011;32071;49.036;9.344;2024-03-22T06:50:12;19.30;;;12.10;;
46363;SDS011;32071;49.036;9.344;2024-03-22T06:52:38;19.70;;;12.23;;
46363;SDS011;32071;49.036;9.344;2024-03-22T06:55:04;18.97;;;12.03;;
46363;SDS011;32071;49.036;9.344;2024-03-22T06:57:31;20.13;;;12.13;;
46363;SDS011;32071;49.036;9.344;2024-03-22T06:59:58;19.87;;;12.80;;
46363;SDS011;32071;49.036;9.344;2024-03-22T07:02:24;22.80;;;13.03;;
46363;SDS011;32071;49.036;9.344;2024-03-22T07:04:50;17.70;;;11.80;;
46363;SDS011;32071;49.036;9.344;2024-03-22T07:07:17;17.33;;;12.57;;
46363;SDS011;32071;49.036;9.344;2024-03-22T07:09:42;19.03;;;12.20;;
46363;SDS011;32071;49.036;9.344;2024-03-22T07:12:08;18.70;;;12.77;;
46363;SDS011;32071;49.036;9.344;2024-03-22T07:14:34;17.53;;;12.20;;
46363;SDS011;32071;49.036;9.344;2024-03-22T07:16:59;17.90;;;12.70;;
46363;SDS011;32071;49.036;9.344;2024-03-22T07:19:25;20.57;;;13.63;;
46363;SDS011;32071;49.036;9.344;2024-03-22T07:21:52;19.23;;;13.00;;
46363;SDS011;32071;49.036;9.344;2024-03-22T07:24:17;22.63;;;13.70;;
46363;SDS011;32071;49.036;9.344;2024-03-22T07:26:43;19.80;;;13.50;;
46363;SDS011;32071;49.036;9.344;2024-03-22T07:29:09;18.93;;;13.83;;
46363;SDS011;32071;49.036;9.344;2024-03-22T07:31:34;24.20;;;14.00;;
46363;SDS011;32071;49.036;9.344;2024-03-22T07:34:00;20.50;;;13.80;;
46363;SDS011;32071;49.036;9.344;2024-03-22T07:36:25;19.97;;;13.30;;
46363;SDS011;32071;49.036;9.344;2024-03-22T07:38:52;18.93;;;13.53;;
46363;SDS011;32071;49.036;9.344;2024-03-22T07:41:17;20.27;;;14.10;;
46363;SDS011;32071;49.036;9.344;2024-03-22T07:43:43;20.13;;;13.27;;
46363;SDS011;32071;49.036;9.344;2024-03-22T07:46:09;22.63;;;14.60;;
46363;SDS011;32071;49.036;9.344;2024-03-22T07:48:34;20.40;;;14.80;;
46363;SDS011;32071;49.036;9.344;2024-03-22T07:51:00;16.83;;;12.80;;
46363;SDS011;32071;49.036;9.344;2024-03-22T07:53:26;21.97;;;15.00;;
46363;SDS011;32071;49.036;9.344;2024-03-22T07:55:52;17.20;;;12.90;;
46363;SDS011;32071;49.036;9.344;2024-03-22T07:58:18;20.47;;;14.13;;
46363;SDS011;32071;49.036;9.344;2024-03-22T08:00:44;19.83;;;13.10;;
46363;SDS011;32071;49.036;9.344;2024-03-22T08:03:16;18.63;;;13.57;;
46363;SDS011;32071;49.036;9.344;2024-03-22T08:05:42;24.20;;;14.47;;
46363;SDS011;32071;49.036;9.344;2024-03-22T08:08:08;19.30;;;13.83;;
46363;SDS011;32071;49.036;9.344;2024-03-22T08:10:33;20.20;;;13.53;;
46363;SDS011;32071;49.036;9.344;2024-03-22T08:12:59;21.93;;;13.43;;
46363;SDS011;32071;49.036;9.344;2024-03-22T08:15:27;16.07;;;12.60;;
46363;SDS011;32071;49.036;9.344;2024-03-22T08:17:53;17.60;;;12.70;;
46363;SDS011;32071;49.036;9.344;2024-03-22T08:20:20;15.73;;;12.70;;
46363;SDS011;32071;49.036;9.344;2024-03-22T08:22:46;18.93;;;13.03;;
46363;SDS011;32071;49.036;9.344;2024-03-22T08:25:11;17.10;;;12.27;;
46363;SDS011;32071;49.036;9.344;2024-03-22T08:27:37;18.17;;;13.00;;
46363;SDS011;32071;49.036;9.344;2024-03-22T08:30:03;16.27;;;11.70;;
46363;SDS011;32071;49.036;9.344;2024-03-22T08:32:29;18.43;;;12.33;;
46363;SDS011;32071;49.036;9.344;2024-03-22T08:34:54;21.73;;;12.53;;
46363;SDS011;32071;49.036;9.344;2024-03-22T08:37:20;14.97;;;11.50;;
46363;SDS011;32071;49.036;9.344;2024-03-22T08:39:46;15.30;;;12.33;;
46363;SDS011;32071;49.036;9.344;2024-03-22T08:42:12;17.03;;;12.47;;
46363;SDS011;32071;49.036;9.344;2024-03-22T08:44:37;16.60;;;12.33;;
46363;SDS011;32071;49.036;9.344;2024-03-22T08:47:04;19.33;;;12.60;;
46363;SDS011;32071;49.036;9.344;2024-03-22T08:49:29;19.57;;;13.10;;
46363;SDS011;32071;49.036;9.344;2024-03-22T08:51:55;16.00;;;11.80;;
46363;SDS011;32071;49.036;9.344;2024-03-22T08:54:20;16.27;;;11.97;;
46363;SDS011;32071;49.036;9.344;2024-03-22T08:56:46;18.80;;;13.07;;
46363;SDS011;32071;49.036;9.344;2024-03-22T08:59:11;16.30;;;12.67;;
46363;SDS011;32071;49.036;9.344;2024-03-22T09:01:37;16.17;;;12.10;;
46363;SDS011;32071;49.036;9.344;2024-03-22T09:04:03;15.60;;;11.90;;
46363;SDS011;32071;49.036;9.344;2024-03-22T09:06:29;16.03;;;12.47;;
46363;SDS011;32071;49.036;9.344;2024-03-22T09:08:54;14.63;;;11.67;;
46363;SDS011;32071;49.036;9.344;2024-03-22T09:11:22;17.70;;;11.90;;
46363;SDS011;32071;49.036;9.344;2024-03-22T09:13:51;17.90;;;12.23;;
46363;SDS011;32071;49.036;9.344;2024-03-22T09:16:17;16.53;;;11.80;;
46363;SDS011;32071;49.036;9.344;2024-03-22T09:18:43;15.70;;;11.33;;
46363;SDS011;32071;49.036;9.344;2024-03-22T09:21:09;18.23;;;11.80;;
46363;SDS011;32071;49.036;9.344;2024-03-22T09:23:35;17.43;;;11.80;;
46363;SDS011;32071;49.036;9.344;2024-03-22T09:26:01;16.20;;;11.23;;
46363;SDS011;32071;49.036;9.344;2024-03-22T09:28:26;13.53;;;11.13;;
46363;SDS011;32071;49.036;9.344;2024-03-22T09:30:52;15.30;;;12.43;;
46363;SDS011;32071;49.036;9.344;2024-03-22T09:33:18;14.77;;;11.73;;
46363;SDS011;32071;49.036;9.344;2024-03-22T09:35:43;14.30;;;11.77;;
46363;SDS011;32071;49.036;9.344;2024-03-22T09:38:09;15.33;;;12.83;;
46363;SDS011;32071;49.036;9.344;2024-03-22T09:40:34;15.37;;;11.07;;
46363;SDS011;32071;49.036;9.344;2024-03-22T09:43:04;13.67;;;11.00;;
46363;SDS011;32071;49.036;9.344;2024-03-22T09:45:31;15.13;;;11.70;;
46363;SDS011;32071;49.036;9.344;2024-03-22T09:47:57;14.50;;;12.00;;
46363;SDS011;32071;49.036;9.344;2024-03-22T09:50:23;14.70;;;12.20;;
46363;SDS011;32071;49.036;9.344;2024-03-22T09:52:50;15.53;;;11.87;;
46363;SDS011;32071;49.036;9.344;2024-03-22T09:55:22;13.80;;;12.10;;
46363;SDS011;32071;49.036;9.344;2024-03-22T09:57:48;14.30;;;12.30;;
46363;SDS011;32071;49.036;9.344;2024-03-22T10:00:16;14.93;;;12.23;;
46363;SDS011;32071;49.036;9.344;2024-03-22T10:02:43;23.40;;;11.83;;
46363;SDS011;32071;49.036;9.344;2024-03-22T10:05:13;16.70;;;11.80;;
46363;SDS011;32071;49.036;9.344;2024-03-22T10:07:39;20.37;;;12.30;;
46363;SDS011;32071;49.036;9.344;2024-03-22T10:10:06;16.63;;;12.50;;
46363;SDS011;32071;49.036;9.344;2024-03-22T10:12:32;13.47;;;11.70;;
46363;SDS011;32071;49.036;9.344;2024-03-22T10:14:58;15.27;;;12.03;;
46363;SDS011;32071;49.036;9.344;2024-03-22T10:17:26;14.27;;;12.63;;
46363;SDS011;32071;49.036;9.344;2024-03-22T10:19:51;15.97;;;11.57;;
46363;SDS011;32071;49.036;9.344;2024-03-22T10:22:17;15.10;;;12.60;;
46363;SDS011;32071;49.036;9.344;2024-03-22T10:24:43;15.23;;;12.60;;
46363;SDS011;32071;49.036;9.344;2024-03-22T10:27:09;15.67;;;12.20;;
46363;SDS011;32071;49.036;9.344;2024-03-22T10:29:35;15.30;;;12.73;;
46363;SDS011;32071;49.036;9.344;2024-03-22T10:32:01;15.33;;;11.63;;
46363;SDS011;32071;49.036;9.344;2024-03-22T10:34:27;20.30;;;10.83;;
46363;SDS011;32071;49.036;9.344;2024-03-22T10:36:53;14.30;;;11.40;;
46363;SDS011;32071;49.036;9.344;2024-03-22T10:39:21;14.70;;;11.33;;
46363;SDS011;32071;49.036;9.344;2024-03-22T10:41:48;17.97;;;15.07;;
46363;SDS011;32071;49.036;9.344;2024-03-22T10:44:14;17.20;;;13.00;;
46363;SDS011;32071;49.036;9.344;2024-03-22T10:46:45;18.50;;;12.73;;
46363;SDS011;32071;49.036;9.344;2024-03-22T10:49:16;14.27;;;12.23;;
46363;SDS011;32071;49.036;9.344;2024-03-22T10:51:44;15.63;;;11.93;;
46363;SDS011;32071;49.036;9.344;2024-03-22T10:54:22;15.97;;;11.93;;
46363;SDS011;32071;49.036;9.344;2024-03-22T10:56:52;13.30;;;11.90;;
46363;SDS011;32071;49.036;9.344;2024-03-22T10:59:19;15.40;;;12.23;;
46363;SDS011;32071;49.036;9.344;2024-03-22T11:01:46;15.03;;;11.47;;
46363;SDS011;32071;49.036;9.344;2024-03-22T11:04:15;13.27;;;11.87;;
46363;SDS011;32071;49.036;9.344;2024-03-22T11:06:56;13.30;;;11.90;;
46363;SDS011;32071;49.036;9.344;2024-03-22T11:09:23;14.90;;;12.47;;
46363;SDS011;32071;49.036;9.344;2024-03-22T11:11:54;14.00;;;11.90;;
46363;SDS011;32071;49.036;9.344;2024-03-22T11:14:20;12.83;;;11.30;;
46363;SDS011;32071;49.036;9.344;2024-03-22T11:16:47;13.33;;;10.73;;
46363;SDS011;32071;49.036;9.344;2024-03-22T11:19:12;11.00;;;9.53;;
46363;SDS011;32071;49.036;9.344;2024-03-22T11:21:38;12.80;;;11.60;;
46363;SDS011;32071;49.036;9.344;2024-03-22T11:24:04;12.10;;;10.00;;
46363;SDS011;32071;49.036;9.344;2024-03-22T11:26:30;12.37;;;10.50;;
46363;SDS011;32071;49.036;9.344;2024-03-22T11:28:57;11.53;;;10.33;;
46363;SDS011;32071;49.036;9.344;2024-03-22T11:31:23;11.67;;;10.03;;
46363;SDS011;32071;49.036;9.344;2024-03-22T11:33:52;10.87;;;9.30;;
46363;SDS011;32071;49.036;9.344;2024-03-22T11:36:22;11.40;;;8.97;;
46363;SDS011;32071;49.036;9.344;2024-03-22T11:38:48;10.13;;;9.10;;
46363;SDS011;32071;49.036;9.344;2024-03-22T11:41:16;10.63;;;9.53;;
46363;SDS011;32071;49.036;9.344;2024-03-22T11:43:43;11.07;;;9.87;;
46363;SDS011;32071;49.036;9.344;2024-03-22T11:46:12;13.00;;;10.70;;
46363;SDS011;32071;49.036;9.344;2024-03-22T11:48:40;14.33;;;9.80;;
46363;SDS011;32071;49.036;9.344;2024-03-22T11:51:06;13.63;;;8.90;;
46363;SDS011;32071;49.036;9.344;2024-03-22T11:53:33;9.43;;;8.50;;
46363;SDS011;32071;49.036;9.344;2024-03-22T11:56:00;7.90;;;7.13;;
46363;SDS011;32071;49.036;9.344;2024-03-22T11:58:26;11.90;;;8.07;;
46363;SDS011;32071;49.036;9.344;2024-03-22T12:00:52;8.53;;;7.63;;
46363;SDS011;32071;49.036;9.344;2024-03-22T12:03:18;9.20;;;8.30;;
46363;SDS011;32071;49.036;9.344;2024-03-22T12:05:44;11.43;;;7.67;;
46363;SDS011;32071;49.036;9.344;2024-03-22T12:08:10;11.53;;;9.03;;
46363;SDS011;32071;49.036;9.344;2024-03-22T12:10:35;9.90;;;8.60;;
46363;SDS011;32071;49.036;9.344;2024-03-22T12:13:01;11.23;;;8.60;;
46363;SDS011;32071;49.036;9.344;2024-03-22T12:15:26;10.53;;;7.80;;
46363;SDS011;32071;49.036;9.344;2024-03-22T12:17:52;7.70;;;6.87;;
46363;SDS011;32071;49.036;9.344;2024-03-22T12:20:18;8.57;;;7.70;;
46363;SDS011;32071;49.036;9.344;2024-03-22T12:22:44;9.10;;;7.23;;
46363;SDS011;32071;49.036;9.344;2024-03-22T12:25:09;13.63;;;6.50;;
46363;SDS011;32071;49.036;9.344;2024-03-22T12:27:36;11.90;;;6.47;;
46363;SDS011;32071;49.036;9.344;2024-03-22T12:30:02;11.63;;;6.50;;
46363;SDS011;32071;49.036;9.344;2024-03-22T12:32:27;7.23;;;5.40;;
46363;SDS011;32071;49.036;9.344;2024-03-22T12:34:54;5.47;;;4.70;;
46363;SDS011;32071;49.036;9.344;2024-03-22T12:37:19;6.60;;;5.90;;
46363;SDS011;32071;49.036;9.344;2024-03-22T12:39:45;6.63;;;5.93;;
46363;SDS011;32071;49.036;9.344;2024-03-22T12:42:12;5.23;;;4.60;;
46363;SDS011;32071;49.036;9.344;2024-03-22T12:44:37;5.40;;;4.20;;
46363;SDS011;32071;49.036;9.344;2024-03-22T12:47:03;5.23;;;4.37;;
46363;SDS011;32071;49.036;9.344;2024-03-22T12:49:29;4.70;;;3.60;;
46363;SDS011;32071;49.036;9.344;2024-03-22T12:51:55;5.10;;;4.20;;
46363;SDS011;32071;49.036;9.344;2024-03-22T12:54:21;6.57;;;3.23;;
46363;SDS011;32071;49.036;9.344;2024-03-22T12:56:47;4.37;;;3.67;;
46363;SDS011;32071;49.036;9.344;2024-03-22T12:59:13;3.40;;;3.10;;
46363;SDS011;32071;49.036;9.344;2024-03-22T13:01:38;4.07;;;3.60;;
46363;SDS011;32071;49.036;9.344;2024-03-22T13:04:04;4.67;;;3.20;;
46363;SDS011;32071;49.036;9.344;2024-03-22T13:06:30;6.90;;;4.20;;
46363;SDS011;32071;49.036;9.344;2024-03-22T13:08:55;6.70;;;4.10;;
46363;SDS011;32071;49.036;9.344;2024-03-22T13:11:21;4.30;;;3.97;;
46363;SDS011;32071;49.036;9.344;2024-03-22T13:13:46;7.80;;;5.27;;
46363;SDS011;32071;49.036;9.344;2024-03-22T13:16:12;5.73;;;4.70;;
46363;SDS011;32071;49.036;9.344;2024-03-22T13:18:39;10.33;;;4.50;;
46363;SDS011;32071;49.036;9.344;2024-03-22T13:21:06;6.73;;;5.00;;
46363;SDS011;32071;49.036;9.344;2024-03-22T13:23:32;6.07;;;5.10;;
46363;SDS011;32071;49.036;9.344;2024-03-22T13:26:01;5.57;;;5.07;;
46363;SDS011;32071;49.036;9.344;2024-03-22T13:28:31;5.57;;;5.00;;
46363;SDS011;32071;49.036;9.344;2024-03-22T13:31:01;6.43;;;5.23;;
46363;SDS011;32071;49.036;9.344;2024-03-22T13:33:28;6.00;;;4.93;;
46363;SDS011;32071;49.036;9.344;2024-03-22T13:35:54;5.37;;;4.40;;
46363;SDS011;32071;49.036;9.344;2024-03-22T13:38:20;4.17;;;3.77;;
46363;SDS011;32071;49.036;9.344;2024-03-22T13:40:52;4.97;;;4.47;;
46363;SDS011;32071;49.036;9.344;2024-03-22T13:43:21;7.37;;;4.30;;
46363;SDS011;32071;49.036;9.344;2024-03-22T13:45:49;4.80;;;4.37;;
46363;SDS011;32071;49.036;9.344;2024-03-22T13:48:18;6.80;;;5.43;;
46363;SDS011;32071;49.036;9.344;2024-03-22T13:50:44;4.20;;;3.83;;
46363;SDS011;32071;49.036;9.344;2024-03-22T13:53:11;4.73;;;4.23;;
46363;SDS011;32071;49.036;9.344;2024-03-22T13:55:36;6.40;;;4.47;;
46363;SDS011;32071;49.036;9.344;2024-03-22T13:58:02;4.60;;;4.20;;
46363;SDS011;32071;49.036;9.344;2024-03-22T14:00:28;6.17;;;4.47;;
46363;SDS011;32071;49.036;9.344;2024-03-22T14:02:54;6.03;;;4.00;;
46363;SDS011;32071;49.036;9.344;2024-03-22T14:05:21;5.63;;;4.70;;
46363;SDS011;32071;49.036;9.344;2024-03-22T14:07:49;3.80;;;3.40;;
46363;SDS011;32071;49.036;9.344;2024-03-22T14:10:14;7.33;;;4.70;;
46363;SDS011;32071;49.036;9.344;2024-03-22T14:12:41;5.50;;;4.70;;
46363;SDS011;32071;49.036;9.344;2024-03-22T14:15:07;7.33;;;4.20;;
46363;SDS011;32071;49.036;9.344;2024-03-22T14:17:33;6.27;;;4.27;;
46363;SDS011;32071;49.036;9.344;2024-03-22T14:19:59;9.23;;;3.90;;
46363;SDS011;32071;49.036;9.344;2024-03-22T14:22:24;9.77;;;3.70;;
46363;SDS011;32071;49.036;9.344;2024-03-22T14:24:50;5.40;;;4.70;;
46363;SDS011;32071;49.036;9.344;2024-03-22T14:27:17;4.80;;;4.37;;
46363;SDS011;32071;49.036;9.344;2024-03-22T14:29:44;5.10;;;4.60;;